Terminal Aerodrome Forecast
Issued by NWS

Home | Current Version | Previous Version | Text Only | Print | Product List | Glossary On
Versions: 1 2 3 4 5 6 7 8 9 10 11 12 13 14 15 16 17 18 19 20 21 22 23 24 25 26 27 28 29 30 31 32 33 34
655
FTUS41 KOKX 232046 AAB
TAFGON
TAF AMD
KGON 232046Z 2321/2418 19008KT P6SM BKN150
     FM240300 VRB03KT P6SM BKN120
     FM240700 06007KT P6SM -RA BKN030 BKN070
     FM241000 05010G17KT 4SM -RA OVC015
     FM241400 02009KT P6SM -SHRA BKN007 OVC050=

USA.gov is the U.S. government's official web portal to all federal, state and local government web resources and services.